Time;durP1;ratioP1;P1;durP2;ratioP2;P2;SDS_P1;SDS_P2;PMS_P1;PMS_P2;Temp;Humidity;BMP_temperature;BMP_pressure;BME280_temperature;BME280_humidity;BME280_pressure;Samples;Min_cycle;Max_cycle;Signal;HPM_P1;HPM_P2
2023/01/19 00:01:24;;;;;;;8.17;1.20;;;;;;;-142.75;100.00;76904.94;5039793;28;20033;-66
2023/01/19 00:03:50;;;;;;;2.20;0.70;;;;;;;-142.75;100.00;76916.75;5040315;28;20029;-67
2023/01/19 00:06:16;;;;;;;6.28;0.90;;;;;;;-142.75;100.00;76924.63;5022093;28;20544;-67
2023/01/19 00:08:44;;;;;;;;;;;;;;;-142.75;100.00;76916.75;5029497;28;20367;-67
2023/01/19 00:11:11;;;;;;;6.67;1.10;;;;;;;-142.75;100.00;76920.69;5019267;28;19917;-67
2023/01/19 00:13:36;;;;;;;7.03;1.00;;;;;;;-142.75;100.00;76946.28;5019776;28;20021;-69
2023/01/19 00:16:02;;;;;;;2.53;1.42;;;;;;;-142.75;100.00;76940.38;5019779;28;20106;-67
2023/01/19 00:18:27;;;;;;;10.00;1.42;;;;;;;-142.75;100.00;76930.53;5001406;28;20029;-67
2023/01/19 00:20:53;;;;;;;4.93;1.08;;;;;;;-142.75;100.00;76936.44;5019897;28;20441;-67
2023/01/19 00:23:19;;;;;;;4.35;2.00;;;;;;;-142.75;100.00;76944.31;5019562;28;20116;-67
2023/01/19 00:25:44;;;;;;;;;;;;;;;-142.75;100.00;76940.38;5020120;28;20036;-65
2023/01/19 00:28:12;;;;;;;2.57;0.90;;;;;;;-142.75;100.00;76958.09;5019290;28;19963;-67
2023/01/19 00:30:38;;;;;;;5.93;1.00;;;;;;;-142.75;100.00;76987.63;5019582;28;20069;-66
2023/01/19 00:33:04;;;;;;;2.73;0.73;;;;;;;-142.75;100.00;76969.91;5018176;28;20144;-67
2023/01/19 00:35:29;;;;;;;2.67;0.52;;;;;;;-142.75;100.00;76981.72;5019523;28;20035;-67
2023/01/19 00:37:56;;;;;;;1.30;0.50;;;;;;;-142.75;100.00;76999.44;5019145;28;20056;-67
2023/01/19 00:40:21;;;;;;;5.07;0.73;;;;;;;-142.75;100.00;76983.69;5001855;28;20021;-64
2023/01/19 00:42:47;;;;;;;2.10;0.47;;;;;;;-142.75;100.00;76977.78;5000607;28;20022;-66
2023/01/19 00:45:19;;;;;;;1.15;0.40;;;;;;;-142.75;100.00;76973.84;5019688;28;20029;-65
2023/01/19 00:47:47;;;;;;;1.67;0.40;;;;;;;-142.75;100.00;76979.75;5018502;28;20082;-65
2023/01/19 00:50:15;;;;;;;1.73;0.67;;;;;;;-142.75;100.00;76999.44;5019346;28;20043;-67
2023/01/19 00:52:42;;;;;;;4.13;0.40;;;;;;;-142.75;100.00;76999.44;5019037;28;20032;-66
2023/01/19 00:55:09;;;;;;;2.20;0.30;;;;;;;-142.75;100.00;76987.63;5019048;28;21416;-67
2023/01/19 00:57:35;;;;;;;3.00;0.50;;;;;;;-142.75;100.00;76989.59;5017619;28;20764;-67
2023/01/19 01:00:00;;;;;;;0.90;0.43;;;;;;;-142.75;100.00;76997.47;5019029;28;20033;-67
2023/01/19 01:02:26;;;;;;;1.73;0.30;;;;;;;-142.75;100.00;77003.38;5018951;28;20036;-67
2023/01/19 01:04:53;;;;;;;4.93;0.73;;;;;;;-142.75;100.00;77025.03;5019359;28;20036;-66
2023/01/19 01:07:23;;;;;;;4.67;0.93;;;;;;;-142.75;100.00;77038.81;5038184;28;20028;-65
2023/01/19 01:09:49;;;;;;;2.70;0.80;;;;;;;-142.75;100.00;77028.97;5039178;28;20017;-67
2023/01/19 01:12:15;;;;;;;3.67;0.80;;;;;;;-142.75;100.00;77023.06;5022155;28;20432;-65
2023/01/19 01:14:41;;;;;;;2.97;0.50;;;;;;;-142.75;100.00;77046.69;5038869;28;20783;-67
2023/01/19 01:17:10;;;;;;;7.10;0.75;;;;;;;-142.75;100.00;77034.88;5038310;28;20025;-65
2023/01/19 01:19:38;;;;;;;3.53;0.50;;;;;;;-142.75;100.00;77025.03;5038848;28;20557;-64
2023/01/19 01:22:04;;;;;;;4.60;0.80;;;;;;;-142.75;100.00;77019.13;5020698;28;20116;-65
2023/01/19 01:24:29;;;;;;;4.22;0.52;;;;;;;-142.75;100.00;77021.09;5038950;28;20433;-66
2023/01/19 01:26:55;;;;;;;2.53;0.50;;;;;;;-142.75;100.00;77030.94;5023408;28;20124;-65
2023/01/19 01:29:20;;;;;;;4.13;0.38;;;;;;;-142.75;100.00;77038.81;5043231;28;20222;-64
2023/01/19 01:31:45;;;;;;;3.85;0.45;;;;;;;-142.75;100.00;77040.78;5042925;28;20029;-66
2023/01/19 01:34:11;;;;;;;5.25;0.40;;;;;;;-142.75;100.00;77050.63;5042597;28;20059;-65
2023/01/19 01:36:36;;;;;;;2.90;0.57;;;;;;;-142.75;100.00;77070.31;5023855;28;20071;-64
2023/01/19 01:39:02;;;;;;;3.50;0.47;;;;;;;-142.75;100.00;77078.19;5042643;28;20712;-66
2023/01/19 01:41:27;;;;;;;;;;;;;;;-142.75;100.00;77076.22;5042870;28;20036;-66
2023/01/19 01:43:58;;;;;;;3.17;0.30;;;;;;;-142.75;100.00;77101.81;5042774;28;20400;-66
2023/01/19 01:46:26;;;;;;;1.80;0.40;;;;;;;-142.75;100.00;77091.97;5042399;28;20628;-64
2023/01/19 01:49:07;;;;;;;1.90;0.40;;;;;;;-142.75;100.00;77082.13;5042205;28;20123;-67
2023/01/19 01:51:39;;;;;;;3.93;0.50;;;;;;;-142.75;100.00;77119.53;5042419;28;20040;-67
2023/01/19 01:54:16;;;;;;;1.27;0.20;;;;;;;-142.75;100.00;77099.84;5024415;28;20055;-66
2023/01/19 01:56:54;;;;;;;1.47;0.40;;;;;;;-142.75;100.00;77107.72;5041392;28;20027;-65
2023/01/19 01:59:28;;;;;;;3.77;0.30;;;;;;;-142.75;100.00;77095.91;5042079;28;20706;-67
2023/01/19 02:04:47;;;;;;;4.33;0.30;;;;;;;-142.75;100.00;77084.09;5029727;28;20395;-66
2023/01/19 02:15:31;;;;;;;3.43;0.50;;;;;;;-142.75;100.00;77084.09;5022789;28;20641;-67
2023/01/19 02:17:57;;;;;;;1.77;0.40;;;;;;;-142.75;100.00;77088.03;5021618;28;20025;-64
2023/01/19 02:20:26;;;;;;;5.77;0.73;;;;;;;-142.75;100.00;77095.91;5022138;28;20025;-64
2023/01/19 02:22:55;;;;;;;1.23;0.40;;;;;;;-142.75;100.00;77084.09;5022150;28;20053;-67
2023/01/19 02:25:21;;;;;;;3.73;0.60;;;;;;;-142.75;100.00;77121.50;5026880;28;20063;-64
2023/01/19 02:27:47;;;;;;;;;;;;;;;-142.75;100.00;77133.31;5041861;28;20112;-66
2023/01/19 02:30:15;;;;;;;4.00;0.60;;;;;;;-142.75;100.00;77156.94;5041188;28;19942;-65
2023/01/19 02:32:41;;;;;;;1.67;0.40;;;;;;;-142.75;100.00;77170.72;5041415;28;20031;-66
2023/01/19 02:35:07;;;;;;;1.90;0.30;;;;;;;-142.75;100.00;77190.41;5023227;28;20020;-66
2023/01/19 02:37:38;;;;;;;1.00;0.30;;;;;;;-142.75;100.00;77217.97;5022772;28;20039;-66
2023/01/19 02:40:10;;;;;;;2.83;0.67;;;;;;;-142.75;100.00;77231.75;5041411;28;20071;-66
2023/01/19 02:42:48;;;;;;;4.30;0.37;;;;;;;-142.75;100.00;77225.84;5023534;28;20461;-65
2023/01/19 02:45:18;;;;;;;0.97;0.40;;;;;;;-142.75;100.00;77217.97;5041272;28;20495;-66
2023/01/19 02:47:48;;;;;;;6.37;0.40;;;;;;;-142.75;100.00;77219.94;5023068;28;20071;-66
2023/01/19 02:50:36;;;;;;;0.83;0.30;;;;;;;-142.75;100.00;77214.03;5021434;28;20495;-66
2023/01/19 02:53:29;;;;;;;3.63;0.30;;;;;;;-142.75;100.00;77196.31;5021353;28;20075;-66
2023/01/19 02:56:08;;;;;;;1.00;0.53;;;;;;;-142.75;100.00;77196.31;5003996;28;20025;-66
2023/01/19 02:59:05;;;;;;;2.00;0.40;;;;;;;-142.75;100.00;77210.09;5002763;28;20029;-66
2023/01/19 03:02:04;;;;;;;3.50;0.60;;;;;;;-142.75;100.00;77208.13;5021375;28;20851;-67
2023/01/19 03:04:45;;;;;;;1.30;0.30;;;;;;;-142.75;100.00;77204.19;5021407;28;20026;-66
2023/01/19 03:07:18;;;;;;;3.53;0.43;;;;;;;-142.75;100.00;77208.13;5020654;28;20024;-64
2023/01/19 03:10:14;;;;;;;3.17;0.40;;;;;;;-142.75;100.00;77204.19;5021036;28;20868;-66
2023/01/19 03:12:54;;;;;;;3.80;0.50;;;;;;;-142.75;100.00;77186.47;5010400;28;20048;-66
2023/01/19 03:15:28;;;;;;;3.20;0.60;;;;;;;-142.75;100.00;77186.47;5023176;28;20028;-66
2023/01/19 03:17:56;;;;;;;2.90;0.40;;;;;;;-142.75;100.00;77180.56;5040237;28;20024;-67
2023/01/19 03:20:24;;;;;;;4.07;0.30;;;;;;;-142.75;100.00;77196.31;5040663;28;20017;-64
2023/01/19 03:22:54;;;;;;;1.90;0.30;;;;;;;-142.75;100.00;77166.78;5023213;28;20025;-66
2023/01/19 03:25:22;;;;;;;3.33;0.37;;;;;;;-142.75;100.00;77168.75;5040718;28;20108;-66
2023/01/19 03:27:52;;;;;;;2.73;0.50;;;;;;;-142.75;100.00;77168.75;5040454;28;20028;-66
2023/01/19 03:30:31;;;;;;;1.07;0.40;;;;;;;-142.75;100.00;77141.19;5040422;28;20025;-66
2023/01/19 03:33:27;;;;;;;3.13;0.33;;;;;;;-142.75;100.00;77174.66;5031080;28;20032;-63
2023/01/19 03:36:00;;;;;;;2.43;0.27;;;;;;;-142.75;100.00;77170.72;5040938;28;20028;-66
2023/01/19 03:38:27;;;;;;;3.40;0.40;;;;;;;-142.75;100.00;77166.78;5039683;28;20055;-66
2023/01/19 03:40:57;;;;;;;3.37;0.50;;;;;;;-142.75;100.00;77178.59;5022769;28;20017;-66
2023/01/19 03:43:24;;;;;;;5.03;1.00;;;;;;;-142.75;100.00;77153.00;5040529;28;20032;-64
2023/01/19 03:45:52;;;;;;;5.90;0.80;;;;;;;-142.75;100.00;77162.84;5040506;28;20025;-66
2023/01/19 03:48:19;;;;;;;3.97;0.77;;;;;;;-142.75;100.00;77156.94;5021096;28;20017;-65
2023/01/19 03:50:45;;;;;;;1.37;0.53;;;;;;;-142.75;100.00;77158.91;5039925;28;20039;-66
2023/01/19 03:53:13;;;;;;;2.00;0.63;;;;;;;-142.75;100.00;77149.06;5040005;28;20784;-62
2023/01/19 03:55:41;;;;;;;4.07;0.87;;;;;;;-142.75;100.00;77147.09;5040140;28;20024;-65
2023/01/19 03:58:07;;;;;;;6.73;1.00;;;;;;;-142.75;100.00;77133.31;5039157;28;20036;-65
2023/01/19 04:00:35;;;;;;;3.30;0.50;;;;;;;-142.75;100.00;77137.25;5039593;28;20027;-66
2023/01/19 04:03:01;;;;;;;2.20;0.40;;;;;;;-142.75;100.00;77133.31;5039808;28;20469;-66
2023/01/19 04:05:26;;;;;;;2.85;0.80;;;;;;;-142.75;100.00;77141.19;5040112;28;20021;-66
2023/01/19 04:07:52;;;;;;;3.38;0.75;;;;;;;-142.75;100.00;77133.31;5039392;28;20514;-66
2023/01/19 04:10:18;;;;;;;6.32;0.63;;;;;;;-142.75;100.00;77121.50;5039590;28;20025;-66
2023/01/19 04:12:44;;;;;;;3.77;0.90;;;;;;;-142.75;100.00;77117.56;5039536;28;20082;-67
2023/01/19 04:15:09;;;;;;;;;;;;;;;-142.75;100.00;77111.66;5039797;28;20051;-66
2023/01/19 04:17:35;;;;;;;11.70;0.93;;;;;;;-142.75;100.00;77119.53;5021023;28;19921;-66
2023/01/19 04:20:00;;;;;;;10.85;1.20;;;;;;;-142.75;100.00;77119.53;5022188;28;20052;-66
2023/01/19 04:22:25;;;;;;;4.90;0.98;;;;;;;-142.75;100.00;77125.44;5039563;28;20020;-67
2023/01/19 04:24:51;;;;;;;10.93;1.20;;;;;;;-142.75;100.00;77125.44;5039789;28;20695;-65
2023/01/19 04:27:17;;;;;;;9.15;1.10;;;;;;;-142.75;100.00;77131.34;5038921;28;20063;-66
2023/01/19 04:29:42;;;;;;;3.05;0.70;;;;;;;-142.75;100.00;77105.75;5039089;28;20726;-66
2023/01/19 04:32:08;;;;;;;8.95;0.98;;;;;;;-142.75;100.00;77113.63;5039115;28;20033;-66
2023/01/19 04:34:33;;;;;;;9.68;1.08;;;;;;;-142.75;100.00;77091.97;5039310;28;20073;-65
2023/01/19 04:36:59;;;;;;;7.80;1.17;;;;;;;-142.75;100.00;77091.97;5035629;28;20475;-66
2023/01/19 04:39:25;;;;;;;13.52;1.58;;;;;;;-142.75;100.00;77086.06;5001765;28;20033;-66
2023/01/19 04:41:51;;;;;;;11.68;1.02;;;;;;;-142.75;100.00;77115.59;5002058;28;20017;-65
2023/01/19 04:44:16;;;;;;;9.55;1.38;;;;;;;-142.75;100.00;77091.97;5027949;28;20028;-66
2023/01/19 04:46:42;;;;;;;13.77;1.67;;;;;;;-142.75;100.00;77090.00;5038395;28;20040;-66
2023/01/19 04:49:08;;;;;;;6.57;1.13;;;;;;;-142.75;100.00;77070.31;5038980;28;20032;-66
2023/01/19 04:51:34;;;;;;;7.83;1.33;;;;;;;-142.75;100.00;77076.22;5038848;28;20688;-66
2023/01/19 04:54:00;;;;;;;7.22;1.42;;;;;;;-142.75;100.00;77068.34;5039044;28;20035;-66
2023/01/19 04:56:25;;;;;;;10.80;1.60;;;;;;;-142.75;100.00;77064.41;5038775;28;20073;-65
2023/01/19 04:58:51;;;;;;;14.25;1.20;;;;;;;-142.75;100.00;77062.44;5038908;28;20668;-65
2023/01/19 05:01:16;;;;;;;13.10;1.63;;;;;;;-142.75;100.00;77062.44;5037974;28;20394;-65
2023/01/19 05:03:41;;;;;;;19.17;1.83;;;;;;;-142.75;100.00;77072.28;5039397;28;20024;-66
2023/01/19 05:06:07;;;;;;;6.22;1.55;;;;;;;-142.75;100.00;77086.06;5039032;28;20021;-67
2023/01/19 05:08:32;;;;;;;17.17;1.73;;;;;;;-142.75;100.00;77082.13;5020336;28;20021;-67
2023/01/19 05:10:58;;;;;;;12.20;1.55;;;;;;;-142.75;100.00;77091.97;5038521;28;20549;-64
2023/01/19 05:13:23;;;;;;;14.30;2.50;;;;;;;-142.75;100.00;77095.91;5038734;28;20498;-66
2023/01/19 05:15:49;;;;;;;14.70;2.13;;;;;;;-142.75;100.00;77097.88;5021073;28;20032;-66
2023/01/19 05:18:14;;;;;;;14.63;1.42;;;;;;;-142.75;100.00;77101.81;5038157;28;20128;-67
2023/01/19 05:20:40;;;;;;;11.52;1.50;;;;;;;-142.75;100.00;77093.94;5038765;28;20025;-65
2023/01/19 05:23:05;;;;;;;9.38;1.35;;;;;;;-142.75;100.00;77086.06;5038540;28;20027;-68
2023/01/19 05:25:30;;;;;;;10.52;1.55;;;;;;;-142.75;100.00;77095.91;5038859;28;20021;-67
2023/01/19 05:27:56;;;;;;;11.65;1.77;;;;;;;-142.75;100.00;77076.22;5037750;28;20025;-63
2023/01/19 05:30:21;;;;;;;12.52;1.38;;;;;;;-142.75;100.00;77070.31;5038617;28;20013;-65
2023/01/19 05:32:47;;;;;;;22.38;2.65;;;;;;;-142.75;100.00;77066.38;5038677;28;20538;-67
2023/01/19 05:35:12;;;;;;;11.82;1.75;;;;;;;-142.75;100.00;77058.50;5020451;28;20029;-67
2023/01/19 05:37:38;;;;;;;10.13;1.65;;;;;;;-142.75;100.00;77062.44;5037831;28;20025;-66
2023/01/19 05:40:04;;;;;;;8.73;1.25;;;;;;;-142.75;100.00;77054.56;5038538;28;20066;-67
2023/01/19 05:42:29;;;;;;;6.80;1.63;;;;;;;-142.75;100.00;77058.50;5020433;28;20028;-66
2023/01/19 05:44:55;;;;;;;13.25;2.13;;;;;;;-142.75;100.00;77062.44;5029154;28;20037;-66
2023/01/19 05:47:20;;;;;;;10.13;1.67;;;;;;;-142.75;100.00;77066.38;5000540;28;20028;-65
2023/01/19 05:49:45;;;;;;;8.25;1.30;;;;;;;-142.75;100.00;77068.34;5019157;28;20029;-66
2023/01/19 05:52:11;;;;;;;12.27;2.05;;;;;;;-142.75;100.00;77072.28;5018441;28;20032;-65
2023/01/19 05:54:39;;;;;;;10.40;1.65;;;;;;;-142.75;100.00;77074.25;5001216;28;20029;-67
2023/01/19 05:57:04;;;;;;;11.70;1.50;;;;;;;-142.75;100.00;77086.06;5028076;28;20064;-67
2023/01/19 05:59:29;;;;;;;11.85;1.75;;;;;;;-142.75;100.00;77095.91;5020578;28;20111;-66
2023/01/19 06:01:55;;;;;;;8.82;1.30;;;;;;;-142.75;100.00;77097.88;5038021;28;20021;-66
2023/01/19 06:04:21;;;;;;;8.70;1.23;;;;;;;-142.75;100.00;77111.66;5018808;28;20026;-64
2023/01/19 06:06:47;;;;;;;10.27;1.33;;;;;;;-142.75;100.00;77117.56;5021250;28;20839;-66
2023/01/19 06:09:13;;;;;;;11.87;1.63;;;;;;;-142.75;100.00;77121.50;5038185;28;20028;-67
2023/01/19 06:11:38;;;;;;;8.43;1.60;;;;;;;-142.75;100.00;77129.38;5021181;28;20068;-65
2023/01/19 06:14:04;;;;;;;18.45;2.05;;;;;;;-142.75;100.00;77137.25;5041879;28;20029;-65
2023/01/19 06:16:29;;;;;;;14.50;1.80;;;;;;;-142.75;100.00;77143.16;5042044;28;20036;-66
2023/01/19 06:18:54;;;;;;;8.77;1.42;;;;;;;-142.75;100.00;77149.06;5041804;28;20028;-66
2023/01/19 06:21:20;;;;;;;6.57;1.23;;;;;;;-142.75;100.00;77176.63;5041714;28;20029;-66
2023/01/19 06:23:45;;;;;;;12.20;1.63;;;;;;;-142.75;100.00;77188.44;5042128;28;20025;-67
2023/01/19 06:26:11;;;;;;;8.38;1.00;;;;;;;-142.75;100.00;77196.31;5042059;28;20041;-63
2023/01/19 06:28:36;;;;;;;8.23;2.00;;;;;;;-142.75;100.00;77204.19;5023029;28;20060;-66
2023/01/19 06:31:02;;;;;;;11.15;1.75;;;;;;;-142.75;100.00;77204.19;5041486;28;20021;-66
2023/01/19 06:33:27;;;;;;;12.33;1.20;;;;;;;-142.75;100.00;77249.47;5024764;28;20439;-65
2023/01/19 06:35:53;;;;;;;6.53;1.35;;;;;;;-142.75;100.00;77253.41;5041877;28;20036;-66
2023/01/19 06:38:19;;;;;;;6.22;1.38;;;;;;;-142.75;100.00;77269.16;5040961;28;20135;-66
2023/01/19 06:40:50;;;;;;;6.70;1.38;;;;;;;-142.75;100.00;77263.25;5041611;28;20053;-66
2023/01/19 06:43:15;;;;;;;12.37;1.63;;;;;;;-142.75;100.00;77267.19;5041539;28;20383;-66
2023/01/19 06:45:41;;;;;;;11.95;1.33;;;;;;;-142.75;100.00;77280.97;5041292;28;20052;-65
2023/01/19 06:48:07;;;;;;;9.75;1.55;;;;;;;-142.75;100.00;77271.13;5040740;28;20025;-66
2023/01/19 06:50:32;;;;;;;11.05;1.45;;;;;;;-142.75;100.00;77243.56;5041264;28;20052;-66
2023/01/19 06:52:57;;;;;;;10.73;1.20;;;;;;;-142.75;100.00;77241.59;5041108;28;20036;-66
2023/01/19 06:55:23;;;;;;;10.27;1.27;;;;;;;-142.75;100.00;77235.69;5023512;28;20033;-65
2023/01/19 06:57:55;;;;;;;7.70;1.25;;;;;;;-142.75;100.00;77223.88;5040356;28;20017;-66
2023/01/19 07:00:21;;;;;;;5.23;1.00;;;;;;;-142.75;100.00;77231.75;5040922;28;20723;-63
2023/01/19 07:02:46;;;;;;;17.67;1.40;;;;;;;-142.75;100.00;77233.72;5041500;28;20028;-66
2023/01/19 07:05:13;;;;;;;11.73;1.25;;;;;;;-142.75;100.00;77243.56;5040572;28;20064;-67
2023/01/19 07:07:39;;;;;;;8.77;1.40;;;;;;;-142.75;100.00;77247.50;5040127;28;20461;-65
2023/01/19 07:10:10;;;;;;;13.05;1.30;;;;;;;-142.75;100.00;77223.88;5040963;28;20043;-66
2023/01/19 07:12:36;;;;;;;7.43;1.00;;;;;;;-142.75;100.00;77235.69;5042377;28;20104;-65
2023/01/19 07:15:01;;;;;;;9.52;1.33;;;;;;;-142.75;100.00;77239.63;5040792;28;20044;-66
2023/01/19 07:17:27;;;;;;;6.15;1.08;;;;;;;-142.75;100.00;77227.81;5040022;28;20064;-64
2023/01/19 07:19:52;;;;;;;8.40;1.75;;;;;;;-142.75;100.00;77217.97;5027684;28;20034;-66
2023/01/19 07:22:17;;;;;;;13.82;1.30;;;;;;;-142.75;100.00;77217.97;5020869;28;20025;-65
2023/01/19 07:24:43;;;;;;;9.35;1.45;;;;;;;-142.75;100.00;77223.88;5019774;28;20025;-66
2023/01/19 07:27:10;;;;;;;4.85;1.02;;;;;;;-142.75;100.00;77217.97;5001938;28;20811;-62
2023/01/19 07:29:35;;;;;;;10.33;0.93;;;;;;;-142.75;100.00;77223.88;5002550;28;20022;-65
2023/01/19 07:32:01;;;;;;;8.88;1.15;;;;;;;-142.75;100.00;77223.88;5020409;28;20025;-66
2023/01/19 07:34:26;;;;;;;12.85;1.73;;;;;;;-142.75;100.00;77235.69;5026843;28;20478;-66
2023/01/19 07:36:51;;;;;;;4.95;1.23;;;;;;;-142.75;100.00;77245.53;5040054;28;20025;-66
2023/01/19 07:39:16;;;;;;;6.13;1.52;;;;;;;-142.75;100.00;77255.38;5040141;28;20035;-65
2023/01/19 07:41:42;;;;;;;15.65;2.10;;;;;;;-142.75;100.00;77275.06;5022600;28;20021;-65
2023/01/19 07:44:07;;;;;;;11.02;1.70;;;;;;;-142.75;100.00;77271.13;5040370;28;20025;-65
2023/01/19 07:46:33;;;;;;;10.88;1.23;;;;;;;-142.75;100.00;77282.94;5039976;28;20747;-65
2023/01/19 07:48:58;;;;;;;6.72;1.20;;;;;;;-142.75;100.00;77284.91;5039878;28;20147;-65
2023/01/19 07:51:24;;;;;;;17.45;1.63;;;;;;;-142.75;100.00;77300.66;5022336;28;20037;-66
2023/01/19 07:53:50;;;;;;;5.05;1.20;;;;;;;-142.75;100.00;77310.50;5040709;28;20089;-65
2023/01/19 07:56:15;;;;;;;;;;;;;;;-142.75;100.00;77312.47;5041215;28;20862;-66
2023/01/19 07:58:41;;;;;;;8.87;1.23;;;;;;;-142.75;100.00;77306.56;5039403;28;19951;-67
2023/01/19 08:01:08;;;;;;;4.30;1.23;;;;;;;-142.75;100.00;77306.56;5034331;28;20040;-65
2023/01/19 08:03:33;;;;;;;10.30;1.50;;;;;;;-142.75;100.00;77320.34;5040011;28;20561;-65
2023/01/19 08:05:59;;;;;;;9.25;1.58;;;;;;;-142.75;100.00;77318.38;5021968;28;20063;-65
2023/01/19 08:08:24;;;;;;;15.85;1.70;;;;;;;-142.75;100.00;77330.19;5039069;28;20032;-65
2023/01/19 08:10:51;;;;;;;6.72;1.40;;;;;;;-142.75;100.00;77338.06;5039862;28;20467;-65
2023/01/19 08:13:16;;;;;;;11.53;2.13;;;;;;;-142.75;100.00;77349.88;5039410;28;20957;-65
2023/01/19 08:15:42;;;;;;;12.88;1.67;;;;;;;-142.75;100.00;77363.66;5032020;28;20025;-67
2023/01/19 08:18:10;;;;;;;8.52;1.90;;;;;;;-142.75;100.00;77336.09;5019079;28;20029;-65
2023/01/19 08:20:36;;;;;;;9.60;1.23;;;;;;;-142.75;100.00;77347.91;5019638;28;20430;-66
2023/01/19 08:23:01;;;;;;;9.65;1.73;;;;;;;-142.75;100.00;77338.06;5019562;28;20033;-66
2023/01/19 08:25:38;;;;;;;9.90;0.90;;;;;;;-142.75;100.00;77336.09;5019463;28;20120;-66
2023/01/19 08:28:05;;;;;;;4.63;1.93;;;;;;;-142.75;100.00;77326.25;5019092;28;20036;-66
2023/01/19 08:30:31;;;;;;;9.30;1.03;;;;;;;-142.75;100.00;77328.22;5019687;28;20696;-66
2023/01/19 08:33:02;;;;;;;;;;;;;;;-142.75;100.00;77318.38;5019778;28;20519;-64
2023/01/19 08:35:29;;;;;;;8.60;1.67;;;;;;;-142.75;100.00;77330.19;5019377;28;19920;-64
2023/01/19 08:37:55;;;;;;;8.90;1.23;;;;;;;-142.75;100.00;77310.50;5019013;28;20810;-66
2023/01/19 08:40:21;;;;;;;4.70;1.08;;;;;;;-142.75;100.00;77298.69;5019387;28;20025;-63
2023/01/19 08:42:46;;;;;;;7.30;1.23;;;;;;;-142.75;100.00;77273.09;5019492;28;20079;-67
2023/01/19 08:45:11;;;;;;;9.77;1.17;;;;;;;-142.75;100.00;77235.69;5019202;28;20025;-64
2023/01/19 08:47:36;;;;;;;9.35;1.00;;;;;;;-142.75;100.00;77200.25;5018664;28;20033;-65
2023/01/19 08:50:02;;;;;;;8.32;0.93;;;;;;;-142.75;100.00;77156.94;5019203;28;20064;-66
2023/01/19 08:52:28;;;;;;;7.68;1.23;;;;;;;-142.75;100.00;77115.59;5037699;28;20179;-67
2023/01/19 08:54:53;;;;;;;7.50;1.13;;;;;;;-142.75;100.00;77082.13;5004109;28;20033;-66
2023/01/19 08:57:19;;;;;;;13.90;1.17;;;;;;;-142.75;100.00;77070.31;5001471;28;20049;-66
2023/01/19 08:59:46;;;;;;;11.02;1.30;;;;;;;-142.75;100.00;77027.00;5039602;28;20294;-65
2023/01/19 09:02:11;;;;;;;5.90;1.43;;;;;;;-142.75;100.00;77038.81;5039150;28;20048;-66
2023/01/19 09:04:37;;;;;;;5.15;1.10;;;;;;;-142.75;100.00;77011.25;5039272;28;20525;-63
2023/01/19 09:07:02;;;;;;;6.15;1.10;;;;;;;-142.75;100.00;77003.38;5020348;28;20055;-65
2023/01/19 09:09:28;;;;;;;5.38;1.20;;;;;;;-142.75;100.00;76989.59;5038938;28;20537;-65
2023/01/19 09:11:54;;;;;;;4.97;1.02;;;;;;;-142.75;100.00;76956.13;5021331;28;20923;-66
2023/01/19 09:14:19;;;;;;;;;;;;;;;-142.75;100.00;76940.38;5039186;28;20028;-66
2023/01/19 09:16:45;;;;;;;7.77;1.57;;;;;;;-142.75;100.00;76928.56;5038203;28;19913;-65
2023/01/19 09:19:10;;;;;;;6.97;1.23;;;;;;;-142.75;100.00;76867.53;5038870;28;20029;-66
2023/01/19 09:21:35;;;;;;;8.05;1.45;;;;;;;-142.75;100.00;76875.41;5038959;28;20053;-66
2023/01/19 09:24:01;;;;;;;13.68;1.83;;;;;;;-142.75;100.00;76853.75;5038573;28;20512;-65
2023/01/19 09:26:26;;;;;;;10.02;1.20;;;;;;;-142.75;100.00;76853.75;5038405;28;20033;-65
2023/01/19 09:28:51;;;;;;;11.70;1.10;;;;;;;-142.75;100.00;76869.50;5020861;28;20065;-66
2023/01/19 09:31:17;;;;;;;4.75;0.80;;;;;;;-142.75;100.00;76836.03;5020603;28;20021;-66
2023/01/19 09:33:42;;;;;;;7.68;1.50;;;;;;;-142.75;100.00;76810.44;5038507;28;20032;-66
2023/01/19 09:36:07;;;;;;;10.27;1.42;;;;;;;-142.75;100.00;76808.50;5038574;28;20028;-65
2023/01/19 09:38:33;;;;;;;12.23;1.45;;;;;;;-142.75;100.00;76771.09;5020047;28;20032;-66
2023/01/19 09:40:59;;;;;;;14.90;1.50;;;;;;;-142.75;100.00;76737.63;5038604;28;20092;-65
2023/01/19 09:43:33;;;;;;;;;;;;;;;-142.75;100.00;76715.97;5039034;28;20037;-65
2023/01/19 09:46:15;;;;;;;4.50;0.90;;;;;;;-142.75;100.00;76725.81;5038118;28;19913;-66
2023/01/19 09:48:56;;;;;;;5.72;1.10;;;;;;;-142.75;100.00;76708.09;5041464;28;20120;-66
2023/01/19 09:51:37;;;;;;;6.88;0.77;;;;;;;-142.75;100.00;76692.34;5042065;28;20063;-64
2023/01/19 09:54:14;;;;;;;8.40;0.93;;;;;;;-142.75;100.00;76696.28;5024307;28;20075;-65
2023/01/19 09:56:41;;;;;;;6.47;0.70;;;;;;;-142.75;100.00;76700.22;5041612;28;20021;-66
2023/01/19 09:59:31;;;;;;;3.10;0.63;;;;;;;-142.75;100.00;76702.19;5024252;28;20159;-67
2023/01/19 10:02:02;;;;;;;5.50;1.27;;;;;;;-142.75;100.00;76731.72;5032224;28;20033;-64
2023/01/19 10:04:42;;;;;;;5.97;0.95;;;;;;;-142.75;100.00;76700.22;5024405;28;20394;-66
2023/01/19 10:07:14;;;;;;;4.80;0.82;;;;;;;-142.75;100.00;76684.47;5032626;28;20025;-66
2023/01/19 10:09:55;;;;;;;6.68;0.73;;;;;;;-142.75;99.55;76654.94;5007320;28;20988;-65
2023/01/19 10:12:35;;;;;;;7.95;1.00;;;;;;;-142.75;94.54;76625.41;5021654;28;20028;-63
2023/01/19 10:15:13;;;;;;;8.10;0.60;;;;;;;-142.75;91.22;76609.66;5021829;28;20104;-66
2023/01/19 10:17:41;;;;;;;3.30;0.52;;;;;;;-142.75;90.62;76607.69;5021380;28;20036;-68
2023/01/19 10:20:16;;;;;;;2.90;0.80;;;;;;;-142.75;88.88;76625.41;5022126;28;20057;-67
2023/01/19 10:22:46;;;;;;;4.07;0.60;;;;;;;-142.75;88.00;76601.78;5022327;28;20053;-66
2023/01/19 10:25:16;;;;;;;2.00;0.70;;;;;;;-142.75;85.17;76629.34;5021154;28;20043;-66
2023/01/19 10:27:43;;;;;;;3.25;0.40;;;;;;;-142.75;85.63;76631.31;5021354;28;20773;-67
2023/01/19 10:30:17;;;;;;;3.63;0.77;;;;;;;-142.75;82.84;76611.63;5022013;28;20563;-65
2023/01/19 10:32:43;;;;;;;2.88;0.60;;;;;;;-142.75;78.69;76611.63;5021012;28;20029;-67
2023/01/19 10:35:22;;;;;;;3.15;0.70;;;;;;;-142.75;77.77;76611.63;5004213;28;20033;-66
2023/01/19 10:37:48;;;;;;;1.95;0.20;;;;;;;-142.75;78.25;76607.69;5003681;28;20132;-68
2023/01/19 10:40:33;;;;;;;5.47;0.82;;;;;;;-142.75;78.96;76562.41;5004371;28;20021;-65
2023/01/19 10:42:58;;;;;;;4.03;0.40;;;;;;;-142.75;78.05;76627.38;5020930;28;20313;-66
2023/01/19 10:45:29;;;;;;;3.00;0.50;;;;;;;-142.75;76.73;76708.09;5004528;28;20569;-67
2023/01/19 10:48:03;;;;;;;3.70;0.55;;;;;;;-142.75;79.09;76731.72;5021112;28;20048;-66
2023/01/19 10:50:31;;;;;;;4.00;0.38;;;;;;;-142.75;79.66;76700.22;5021727;28;20022;-66
2023/01/19 10:53:00;;;;;;;3.90;0.60;;;;;;;-142.75;79.01;76652.97;5021326;28;20835;-64
2023/01/19 10:55:37;;;;;;;3.15;0.50;;;;;;;-142.75;77.83;76652.97;5021529;28;20029;-66
2023/01/19 10:58:02;;;;;;;0.60;0.32;;;;;;;-142.75;76.61;76706.13;5020570;28;20021;-68
2023/01/19 11:00:37;;;;;;;3.45;0.60;;;;;;;-142.75;76.37;76666.75;5021759;28;20483;-67
2023/01/19 11:03:24;;;;;;;3.95;0.60;;;;;;;-142.75;75.12;76660.84;5021423;28;20029;-66
2023/01/19 11:05:50;;;;;;;0.98;0.28;;;;;;;-142.75;73.86;76645.09;4990712;28;20046;-66
2023/01/19 11:08:27;;;;;;;1.17;0.20;;;;;;;-142.75;73.36;76639.19;5020115;28;20487;-67
2023/01/19 11:11:01;;;;;;;5.38;0.73;;;;;;;-142.75;73.34;76654.94;5021340;28;20059;-67
2023/01/19 11:13:26;;;;;;;1.63;0.30;;;;;;;-142.75;73.85;76605.72;5021074;28;20021;-66
2023/01/19 11:15:58;;;;;;;6.57;0.45;;;;;;;-142.75;73.63;76609.66;5003860;28;20347;-67
2023/01/19 11:18:36;;;;;;;1.83;0.35;;;;;;;-142.75;74.20;76607.69;5004748;28;20042;-67
2023/01/19 11:21:13;;;;;;;5.88;0.70;;;;;;;-142.75;73.74;76564.38;5040319;28;20724;-67
2023/01/19 11:23:41;;;;;;;5.57;0.50;;;;;;;-142.75;73.48;76562.41;5021000;28;20582;-66
2023/01/19 11:26:15;;;;;;;1.80;0.43;;;;;;;-142.75;71.66;76528.97;5020491;28;20038;-67